Nearby METAR Reports

 

EGAA - Belfast International Airport
Distance from station: W 19.6km
Updated: 20/08/2017 06:20
Mostly cloudy
Mostly cloudy
 Wind from S
Wind: S 7 km/h
Temperature: 10°C
Wind Chill: 9°C
Dew Point: 10°C
Humidity: 100%
Barometer: 1019 hPa
Clouds: Mostly cloudy
Visibility: 10 km
Cloud details: Few Clouds 244 m
Mostly cloudy 1250 m
2017/08/20 05:20 EGAA 200520Z 18004KT 9999 FEW008 BKN041 10/10 Q1019
EGAC - George Best Belfast City Airport
Distance from station: SE 6.4km
Updated: 20/08/2017 06:20
Mostly cloudy
Mostly cloudy
 Wind from SSE
Wind: SSE 9 km/h
Temperature: 10°C
Wind Chill: 9°C
Dew Point: 9°C
Humidity: 94%
Barometer: 1019 hPa
Clouds: Mostly cloudy
Visibility: 10 km
Cloud details: Few Clouds 366 m
Mostly cloudy 1341 m
2017/08/20 05:20 EGAC 200520Z 16005KT 9999 FEW012 BKN044 10/09 Q1019